createdAt,value
2018-12-24T00:03:08.734Z,99.20
2018-12-24T00:05:56.620Z,98.80
2018-12-24T00:08:44.772Z,99.90
2018-12-24T00:11:33.366Z,99.90
2018-12-24T00:14:21.239Z,99.90
2018-12-24T00:17:09.198Z,99.90
2018-12-24T00:19:57.371Z,99.90
2018-12-24T00:22:45.626Z,99.90
2018-12-24T00:25:33.858Z,99.90
2018-12-24T00:28:22.103Z,99.90
2018-12-24T00:31:09.986Z,99.90
2018-12-24T00:33:57.882Z,99.90
2018-12-24T00:36:46.131Z,99.90
2018-12-24T00:39:34.050Z,99.90
2018-12-24T00:42:22.307Z,99.90
2018-12-24T00:45:10.182Z,99.90
2018-12-24T00:47:51.286Z,99.90
2018-12-24T00:50:31.902Z,99.90
2018-12-24T00:53:12.298Z,99.90
2018-12-24T00:55:53.778Z,99.90
2018-12-24T00:58:35.206Z,99.90
2018-12-24T01:01:15.967Z,99.90
2018-12-24T01:03:57.186Z,99.90
2018-12-24T01:06:38.039Z,99.90
2018-12-24T01:09:17.082Z,99.40
2018-12-24T01:12:05.206Z,99.70
2018-12-24T01:14:53.090Z,99.90
2018-12-24T01:17:40.969Z,99.90
2018-12-24T01:20:29.129Z,99.90
2018-12-24T01:23:17.374Z,98.40
2018-12-24T01:26:05.250Z,99.60
2018-12-24T01:28:53.135Z,99.30
2018-12-24T01:31:41.255Z,99.90
2018-12-24T01:34:29.430Z,99.90
2018-12-24T01:37:17.294Z,99.90
2018-12-24T01:40:05.611Z,99.80
2018-12-24T01:42:53.516Z,99.90
2018-12-24T01:45:41.453Z,99.90
2018-12-24T01:48:29.307Z,99.90
2018-12-24T01:51:17.457Z,99.90
2018-12-24T01:54:05.348Z,99.90
2018-12-24T01:56:53.214Z,99.90
2018-12-24T01:59:41.102Z,99.90
2018-12-24T02:02:28.974Z,99.00
2018-12-24T02:05:16.854Z,99.30
2018-12-24T02:08:04.715Z,99.10
2018-12-24T02:10:52.598Z,99.90
2018-12-24T02:13:40.942Z,99.90
2018-12-24T02:16:29.106Z,99.30
2018-12-24T02:19:17.250Z,99.10
2018-12-24T02:21:58.154Z,99.60
2018-12-24T02:24:38.955Z,99.90
2018-12-24T02:27:18.055Z,99.90
2018-12-24T02:30:06.002Z,99.90
2018-12-24T02:32:54.207Z,99.90
2018-12-24T02:35:42.156Z,99.90
2018-12-24T02:38:30.014Z,99.50
2018-12-24T02:41:18.181Z,99.10
2018-12-24T02:44:06.059Z,98.60
2018-12-24T02:46:54.199Z,98.60
2018-12-24T02:49:42.058Z,99.30
2018-12-24T02:52:29.954Z,98.50
2018-12-24T02:55:18.114Z,99.10
2018-12-24T02:58:05.979Z,99.90
2018-12-24T03:00:53.878Z,99.90
2018-12-24T03:03:41.745Z,99.80
2018-12-24T03:06:29.623Z,99.60
2018-12-24T03:09:17.490Z,99.90
2018-12-24T03:12:05.371Z,98.70
2018-12-24T03:14:53.237Z,98.90
2018-12-24T03:17:53.735Z,98.50
2018-12-24T03:20:31.299Z,99.50
2018-12-24T03:23:12.020Z,98.90
2018-12-24T03:25:56.276Z,99.50
2018-12-24T03:28:37.040Z,99.90
2018-12-24T03:31:18.133Z,99.90
2018-12-24T03:33:58.486Z,99.90
2018-12-24T03:36:40.083Z,99.90
2018-12-24T03:39:20.936Z,99.90
2018-12-24T03:42:02.003Z,99.90
2018-12-24T03:44:42.712Z,99.90
2018-12-24T03:47:23.244Z,99.90
2018-12-24T03:50:04.319Z,99.50
2018-12-24T03:52:45.426Z,99.90
2018-12-24T03:55:24.335Z,99.90
2018-12-24T03:58:12.223Z,99.90
2018-12-24T04:01:00.470Z,99.90
2018-12-24T04:03:48.340Z,99.90
2018-12-24T04:06:36.222Z,99.30
2018-12-24T04:09:24.089Z,98.80
2018-12-24T04:12:11.970Z,99.60
2018-12-24T04:15:00.294Z,98.70
2018-12-24T04:17:50.044Z,98.90
2018-12-24T04:20:37.968Z,99.60
2018-12-24T04:23:18.843Z,99.50
2018-12-24T04:26:00.368Z,99.20
2018-12-24T04:28:41.488Z,98.90
2018-12-24T04:31:22.362Z,98.40
2018-12-24T04:34:03.439Z,98.80
2018-12-24T04:36:42.329Z,99.20
2018-12-24T04:39:30.193Z,97.70
2018-12-24T04:42:18.078Z,98.90
2018-12-24T04:45:06.268Z,98.90
2018-12-24T04:47:54.155Z,97.80
2018-12-24T04:50:42.031Z,98.80
2018-12-24T04:53:30.222Z,99.60
2018-12-24T04:56:18.369Z,99.70
2018-12-24T04:59:06.250Z,99.90
2018-12-24T05:01:54.432Z,99.90
2018-12-24T05:04:42.294Z,99.40
2018-12-24T05:07:30.181Z,98.70
2018-12-24T05:10:18.056Z,98.00
2018-12-24T05:13:06.302Z,98.30
2018-12-24T05:15:54.170Z,98.20
2018-12-24T05:18:42.058Z,98.00
2018-12-24T05:21:29.928Z,98.10
2018-12-24T05:23:58.469Z,98.30
2018-12-24T05:26:46.329Z,98.90
2018-12-24T05:29:27.468Z,99.00
2018-12-24T05:32:08.430Z,99.50
2018-12-24T05:34:49.172Z,99.20
2018-12-24T05:37:30.038Z,99.10
2018-12-24T05:40:10.981Z,99.00
2018-12-24T05:42:51.992Z,99.10
2018-12-24T05:45:32.406Z,99.20
2018-12-24T05:48:12.787Z,98.70
2018-12-24T05:50:54.010Z,97.90
2018-12-24T05:53:35.115Z,97.60
2018-12-24T05:56:15.720Z,98.20
2018-12-24T05:58:56.807Z,98.00
2018-12-24T06:01:37.492Z,98.00
2018-12-24T06:04:18.585Z,97.30
2018-12-24T06:06:59.814Z,97.40
2018-12-24T06:09:40.850Z,97.50
2018-12-24T06:12:19.937Z,97.60
2018-12-24T06:15:07.819Z,97.10
2018-12-24T06:17:57.636Z,97.30
2018-12-24T06:20:45.297Z,97.60
2018-12-24T06:23:33.196Z,96.40
2018-12-24T06:26:21.356Z,96.20
2018-12-24T06:29:02.017Z,96.10
2018-12-24T06:31:42.718Z,96.30
2018-12-24T06:34:23.637Z,96.40
2018-12-24T06:37:04.840Z,96.80
2018-12-24T06:39:43.970Z,96.20
2018-12-24T06:42:32.197Z,96.50
2018-12-24T06:45:20.471Z,96.90
2018-12-24T06:48:08.347Z,96.20
2018-12-24T06:50:56.525Z,96.70
2018-12-24T06:53:44.428Z,95.70
2018-12-24T06:56:32.286Z,95.70
2018-12-24T06:59:20.169Z,95.10
2018-12-24T07:02:08.038Z,95.50
2018-12-24T07:04:56.210Z,95.50
2018-12-24T07:07:44.354Z,94.90
2018-12-24T07:10:32.246Z,95.70
2018-12-24T07:13:31.648Z,96.20
2018-12-24T07:16:09.719Z,95.40
2018-12-24T07:18:57.954Z,94.90
2018-12-24T07:21:46.091Z,95.50
2018-12-24T07:24:26.710Z,95.30
2018-12-24T07:27:07.811Z,95.60
2018-12-24T07:29:46.749Z,95.60
2018-12-24T07:32:34.884Z,95.20
2018-12-24T07:35:23.045Z,95.20
2018-12-24T07:38:11.208Z,95.50
2018-12-24T07:40:59.091Z,95.50
2018-12-24T07:43:46.954Z,95.70
2018-12-24T07:46:35.134Z,94.40
2018-12-24T07:49:23.023Z,94.80
2018-12-24T07:52:11.187Z,95.00
2018-12-24T07:54:59.330Z,95.30
2018-12-24T07:57:47.199Z,96.10
2018-12-24T08:00:35.410Z,95.20
2018-12-24T08:03:23.273Z,95.00
2018-12-24T08:06:11.163Z,94.40
2018-12-24T08:08:59.017Z,95.10
2018-12-24T08:11:46.898Z,94.80
2018-12-24T08:14:35.112Z,96.10
2018-12-24T08:17:23.342Z,96.20
2018-12-24T08:20:11.586Z,95.60
2018-12-24T08:22:59.726Z,94.90
2018-12-24T08:25:47.610Z,94.60
2018-12-24T08:28:28.755Z,95.00
2018-12-24T08:31:09.737Z,94.40
2018-12-24T08:33:50.706Z,94.80
2018-12-24T08:36:31.889Z,96.00
2018-12-24T08:39:12.931Z,95.30
2018-12-24T08:41:54.062Z,95.10
2018-12-24T08:44:41.747Z,94.70
2018-12-24T08:47:18.288Z,94.50
2018-12-24T08:49:59.399Z,94.60
2018-12-24T08:52:40.603Z,94.60
2018-12-24T08:55:19.620Z,95.10
2018-12-24T08:58:07.497Z,93.80
2018-12-24T09:00:55.701Z,94.30
2018-12-24T09:03:43.943Z,93.70
2018-12-24T09:06:31.854Z,94.30
2018-12-24T09:09:19.738Z,93.60
2018-12-24T09:12:07.622Z,93.90
2018-12-24T09:14:55.501Z,92.70
2018-12-24T09:17:43.735Z,93.50
2018-12-24T09:20:31.615Z,93.40
2018-12-24T09:23:12.307Z,94.00
2018-12-24T09:25:52.922Z,94.50
2018-12-24T09:28:33.822Z,94.10
2018-12-24T09:31:12.970Z,93.00
2018-12-24T09:34:00.854Z,92.70
2018-12-24T09:36:48.738Z,92.10
2018-12-24T09:39:29.326Z,93.20
2018-12-24T09:42:10.196Z,92.80
2018-12-24T09:44:58.724Z,93.40
2018-12-24T09:47:33.905Z,93.40
2018-12-24T09:50:15.354Z,91.50
2018-12-24T09:52:56.107Z,91.30
2018-12-24T09:55:37.179Z,92.70
2018-12-24T09:58:18.109Z,92.80
2018-12-24T10:00:59.302Z,90.90
2018-12-24T10:03:40.594Z,90.90
2018-12-24T10:06:24.782Z,90.80
2018-12-24T10:09:06.134Z,91.30
2018-12-24T10:11:46.986Z,90.90
2018-12-24T10:14:28.102Z,89.40
2018-12-24T10:17:08.971Z,91.20
2018-12-24T10:19:50.546Z,91.80
2018-12-24T10:22:31.926Z,92.30
2018-12-24T10:25:13.339Z,91.60
2018-12-24T10:27:54.238Z,91.50
2018-12-24T10:30:35.647Z,90.20
2018-12-24T10:33:14.614Z,91.50
2018-12-24T10:36:02.815Z,91.50
2018-12-24T10:38:50.711Z,90.80
2018-12-24T10:41:31.570Z,92.60
2018-12-24T10:44:13.038Z,90.30
2018-12-24T10:46:53.398Z,90.10
2018-12-24T10:49:33.781Z,91.40
2018-12-24T10:52:15.254Z,90.50
2018-12-24T10:54:56.314Z,90.00
2018-12-24T10:57:37.037Z,85.80
2018-12-24T11:00:18.454Z,87.70
2018-12-24T11:02:59.748Z,88.60
2018-12-24T11:05:40.934Z,87.70
2018-12-24T11:08:22.102Z,87.70
2018-12-24T11:11:02.389Z,83.30
2018-12-24T11:13:42.934Z,83.00
2018-12-24T11:16:23.380Z,85.30
2018-12-24T11:19:02.176Z,85.70
2018-12-24T11:21:50.059Z,83.40
2018-12-24T11:24:38.294Z,80.50
2018-12-24T11:27:26.167Z,78.80
2018-12-24T11:30:14.051Z,81.10
2018-12-24T11:33:01.910Z,78.00
2018-12-24T11:35:50.130Z,80.80
2018-12-24T11:38:37.994Z,80.20
2018-12-24T11:41:19.174Z,80.70
2018-12-24T11:44:00.402Z,82.00
2018-12-24T11:46:41.495Z,75.20
2018-12-24T11:49:22.814Z,78.70
2018-12-24T11:52:04.041Z,76.40
2018-12-24T11:54:44.515Z,78.70
2018-12-24T11:57:23.381Z,77.40
2018-12-24T12:00:11.638Z,72.80
2018-12-24T12:03:01.487Z,75.60
2018-12-24T12:05:49.618Z,73.10
2018-12-24T12:08:37.762Z,76.90
2018-12-24T12:11:25.909Z,75.80
2018-12-24T12:14:13.790Z,74.00
2018-12-24T12:17:01.991Z,74.40
2018-12-24T12:19:49.870Z,73.30
2018-12-24T12:22:38.069Z,76.00
2018-12-24T12:25:25.947Z,71.50
2018-12-24T12:28:14.147Z,70.00
2018-12-24T12:31:02.038Z,70.80
2018-12-24T12:33:49.902Z,73.30
2018-12-24T12:36:37.792Z,77.10
2018-12-24T12:39:25.905Z,81.80
2018-12-24T12:42:07.282Z,79.50
2018-12-24T12:44:47.918Z,79.30
2018-12-24T12:47:28.265Z,83.60
2018-12-24T12:50:08.982Z,82.90
2018-12-24T12:52:50.154Z,82.30
2018-12-24T12:55:31.549Z,81.40
2018-12-24T12:58:12.543Z,83.00
2018-12-24T13:00:53.672Z,81.00
2018-12-24T13:03:34.341Z,81.00
2018-12-24T13:06:15.623Z,85.40
2018-12-24T13:08:56.615Z,85.90
2018-12-24T13:11:37.554Z,90.00
2018-12-24T13:14:18.335Z,90.50
2018-12-24T13:16:59.095Z,92.30
2018-12-24T13:19:39.878Z,90.60
2018-12-24T13:22:21.322Z,86.90
2018-12-24T13:25:02.557Z,88.40
2018-12-24T13:27:43.735Z,82.30
2018-12-24T13:30:25.103Z,80.50
2018-12-24T13:33:04.186Z,73.10
2018-12-24T13:35:52.073Z,72.20
2018-12-24T13:38:40.239Z,73.50
2018-12-24T13:41:28.118Z,72.10
2018-12-24T13:44:15.981Z,76.60
2018-12-24T13:46:56.454Z,74.90
2018-12-24T13:49:37.611Z,78.80
2018-12-24T13:52:18.654Z,82.00
2018-12-24T13:56:00.811Z,84.60
2018-12-24T13:58:41.322Z,82.50
2018-12-24T14:01:21.950Z,81.30
2018-12-24T14:04:02.882Z,83.60
2018-12-24T14:06:43.526Z,84.70
2018-12-24T14:09:24.098Z,85.50
2018-12-24T14:12:04.602Z,86.60
2018-12-24T14:14:43.575Z,89.50
2018-12-24T14:17:31.351Z,87.70
2018-12-24T14:20:19.126Z,88.70
2018-12-24T14:23:07.182Z,88.70
2018-12-24T14:25:54.966Z,89.00
2018-12-24T14:28:42.730Z,87.80
2018-12-24T14:31:30.776Z,88.00
2018-12-24T14:34:18.814Z,90.60
2018-12-24T14:37:06.859Z,89.70
2018-12-24T14:39:54.994Z,90.20
2018-12-24T14:42:43.059Z,90.30
2018-12-24T14:45:23.974Z,90.60
2018-12-24T14:48:04.767Z,92.00
2018-12-24T14:50:47.275Z,90.50
2018-12-24T14:53:28.765Z,90.90
2018-12-24T14:56:09.401Z,91.60
2018-12-24T14:58:50.589Z,91.30
2018-12-24T15:01:31.755Z,92.40
2018-12-24T15:04:12.653Z,91.70
2018-12-24T15:06:53.266Z,92.10
2018-12-24T15:09:34.541Z,92.30
2018-12-24T15:12:14.735Z,92.90
2018-12-24T15:14:55.601Z,93.10
2018-12-24T15:17:36.489Z,93.10
2018-12-24T15:20:17.244Z,92.90
2018-12-24T15:22:57.603Z,93.90
2018-12-24T15:25:38.371Z,93.80
2018-12-24T15:28:19.720Z,94.20
2018-12-24T15:31:00.608Z,94.10
2018-12-24T15:33:41.160Z,94.10
2018-12-24T15:36:21.614Z,94.40
2018-12-24T15:39:02.162Z,94.30
2018-12-24T15:41:43.354Z,94.20
2018-12-24T15:44:23.841Z,94.20
2018-12-24T15:47:04.610Z,93.90
2018-12-24T15:49:45.655Z,93.70
2018-12-24T15:52:26.198Z,94.20
2018-12-24T15:55:06.778Z,94.20
2018-12-24T15:57:47.805Z,95.20
2018-12-24T16:00:28.521Z,96.00
2018-12-24T16:03:08.994Z,94.90
2018-12-24T16:08:31.558Z,93.90
2018-12-24T16:11:19.703Z,93.70
2018-12-24T16:14:07.843Z,94.70
2018-12-24T16:16:55.877Z,95.60
2018-12-24T16:19:43.657Z,95.60
2018-12-24T16:22:31.806Z,95.40
2018-12-24T16:25:19.593Z,94.20
2018-12-24T16:28:07.373Z,94.30
2018-12-24T16:30:55.237Z,93.60
2018-12-24T16:33:44.650Z,93.90
2018-12-24T16:36:32.778Z,93.70
2018-12-24T16:39:20.919Z,93.20
2018-12-24T16:42:08.938Z,92.60
2018-12-24T16:44:56.717Z,93.00
2018-12-24T16:47:44.834Z,93.70
2018-12-24T16:50:32.614Z,93.30
2018-12-24T16:53:13.946Z,93.50
2018-12-24T16:55:54.933Z,94.10
2018-12-24T16:58:35.770Z,94.20
2018-12-24T17:01:16.413Z,94.40
2018-12-24T17:03:57.258Z,95.30
2018-12-24T17:06:37.938Z,95.00
2018-12-24T17:09:18.678Z,95.70
2018-12-24T17:11:59.785Z,95.90
2018-12-24T17:14:40.842Z,95.90
2018-12-24T17:17:21.527Z,95.50
2018-12-24T17:20:02.206Z,95.90
2018-12-24T17:22:43.230Z,95.70
2018-12-24T17:25:24.134Z,94.90
2018-12-24T17:28:04.875Z,95.90
2018-12-24T17:30:45.577Z,95.90
2018-12-24T17:33:26.721Z,95.50
2018-12-24T17:36:07.439Z,95.40
2018-12-24T17:38:48.387Z,95.10
2018-12-24T17:41:28.894Z,94.90
2018-12-24T17:44:10.254Z,95.60
2018-12-24T17:46:50.759Z,95.30
2018-12-24T17:49:31.269Z,94.90
2018-12-24T17:52:12.416Z,95.50
2018-12-24T17:54:52.981Z,95.30
2018-12-24T17:57:33.654Z,95.90
2018-12-24T18:00:14.347Z,95.90
2018-12-24T18:02:54.650Z,96.20
2018-12-24T18:05:35.699Z,96.40
2018-12-24T18:08:16.684Z,95.80
2018-12-24T18:10:57.717Z,94.70
2018-12-24T18:13:38.510Z,94.60
2018-12-24T18:16:19.122Z,95.70
2018-12-24T18:19:00.374Z,95.40
2018-12-24T18:21:40.891Z,95.50
2018-12-24T18:24:22.251Z,95.40
2018-12-24T18:27:03.445Z,95.80
2018-12-24T18:29:43.766Z,95.30
2018-12-24T18:32:24.836Z,95.20
2018-12-24T18:35:05.574Z,95.60
2018-12-24T18:37:46.262Z,96.20
2018-12-24T18:40:26.765Z,96.60
2018-12-24T18:43:07.954Z,96.30
2018-12-24T18:45:48.923Z,96.20
2018-12-24T18:48:29.334Z,96.20
2018-12-24T18:51:09.770Z,96.60
2018-12-24T18:53:50.683Z,96.50
2018-12-24T18:56:31.305Z,96.70
2018-12-24T18:59:11.677Z,97.00
2018-12-24T19:01:52.851Z,97.30
2018-12-24T19:04:33.551Z,97.40
2018-12-24T19:07:13.921Z,97.60
2018-12-24T19:09:54.959Z,99.10
2018-12-24T19:12:35.491Z,98.80
2018-12-24T19:15:16.414Z,97.80
2018-12-24T19:17:56.857Z,96.90
2018-12-24T19:20:37.581Z,96.90
2018-12-24T19:23:18.458Z,97.20
2018-12-24T19:25:59.283Z,96.70
2018-12-24T19:28:40.281Z,96.30
2018-12-24T19:31:20.870Z,96.40
2018-12-24T19:34:01.790Z,96.90
2018-12-24T19:36:42.715Z,97.00
2018-12-24T19:39:23.372Z,96.70
2018-12-24T19:42:04.103Z,96.80
2018-12-24T19:44:44.579Z,96.00
2018-12-24T19:47:25.155Z,96.40
2018-12-24T19:50:05.780Z,96.10
2018-12-24T19:52:46.820Z,96.00
2018-12-24T19:55:27.558Z,96.20
2018-12-24T19:58:08.030Z,96.00
2018-12-24T20:00:48.695Z,96.10
2018-12-24T20:03:29.037Z,96.00
2018-12-24T20:06:10.231Z,95.70
2018-12-24T20:08:51.345Z,96.10
2018-12-24T20:11:31.882Z,96.10
2018-12-24T20:14:12.874Z,96.50
2018-12-24T20:16:53.514Z,96.40
2018-12-24T20:19:34.462Z,96.40
2018-12-24T20:22:14.986Z,96.00
2018-12-24T20:24:55.578Z,95.60
2018-12-24T20:27:36.272Z,95.10
2018-12-24T20:30:16.870Z,94.30
2018-12-24T20:32:57.574Z,94.10
2018-12-24T20:35:37.846Z,95.40
2018-12-24T20:38:16.583Z,94.50
2018-12-24T20:41:04.693Z,95.10
2018-12-24T20:43:52.484Z,95.10
2018-12-24T20:46:40.572Z,93.60
2018-12-24T20:49:28.614Z,93.40
2018-12-24T20:52:16.391Z,93.60
2018-12-24T20:55:04.495Z,93.60
2018-12-24T20:57:52.261Z,92.80
2018-12-24T21:00:40.022Z,93.50
2018-12-24T21:03:28.102Z,94.40
2018-12-24T21:06:15.857Z,94.80
2018-12-24T21:09:24.661Z,94.20
2018-12-24T21:12:12.802Z,93.80
2018-12-24T21:15:00.562Z,93.10
2018-12-24T21:17:48.594Z,93.00
2018-12-24T21:20:36.453Z,93.20
2018-12-24T21:23:26.190Z,93.60
2018-12-24T21:26:13.958Z,93.50
2018-12-24T21:28:55.314Z,93.00
2018-12-24T21:31:36.289Z,92.80
2018-12-24T21:34:17.382Z,92.30
2018-12-24T21:36:56.457Z,90.00
2018-12-24T21:39:44.606Z,84.00
2018-12-24T21:42:32.545Z,86.00
2018-12-24T21:45:20.310Z,84.70
2018-12-24T21:48:08.097Z,79.70
2018-12-24T21:50:55.893Z,76.50
2018-12-24T21:53:44.021Z,79.90
2018-12-24T21:56:31.779Z,78.60
2018-12-24T21:59:19.894Z,79.60
2018-12-24T22:02:07.946Z,75.60
2018-12-24T22:04:56.094Z,75.60
2018-12-24T22:07:43.874Z,79.30
2018-12-24T22:10:31.633Z,79.00
2018-12-24T22:13:19.413Z,81.10
2018-12-24T22:16:07.196Z,78.30
2018-12-24T22:18:55.029Z,77.90
2018-12-24T22:21:42.801Z,74.10
2018-12-24T22:24:30.922Z,75.40
2018-12-24T22:27:18.956Z,78.40
2018-12-24T22:30:06.734Z,81.60
2018-12-24T22:32:54.827Z,84.10
2018-12-24T22:35:35.523Z,84.00
2018-12-24T22:38:16.670Z,85.40
2018-12-24T22:40:57.354Z,86.50
2018-12-24T22:43:38.322Z,85.10
2018-12-24T22:46:19.163Z,83.00
2018-12-24T22:48:59.857Z,82.90
2018-12-24T22:51:40.662Z,82.10
2018-12-24T22:54:21.360Z,83.20
2018-12-24T22:57:01.770Z,83.60
2018-12-24T22:59:42.364Z,83.80
2018-12-24T23:02:23.146Z,84.00
2018-12-24T23:05:03.811Z,83.70
2018-12-24T23:07:44.759Z,84.00
2018-12-24T23:10:25.731Z,84.30
2018-12-24T23:13:06.533Z,83.60
2018-12-24T23:15:47.224Z,84.00
2018-12-24T23:18:27.946Z,83.90
2018-12-24T23:21:09.078Z,88.00
2018-12-24T23:23:49.810Z,89.90
2018-12-24T23:26:30.578Z,89.50
2018-12-24T23:29:11.380Z,88.30
2018-12-24T23:31:52.556Z,89.20
2018-12-24T23:34:33.186Z,89.50
2018-12-24T23:37:13.661Z,90.30
2018-12-24T23:39:54.266Z,91.00
2018-12-24T23:42:35.045Z,91.20
2018-12-24T23:45:15.963Z,92.00
2018-12-24T23:47:56.938Z,92.50
2018-12-24T23:50:38.026Z,92.30
2018-12-24T23:53:19.145Z,92.40
2018-12-24T23:55:59.814Z,92.90
2018-12-24T23:58:40.406Z,92.80
